Data for 08/26/2016

Time Sea-Level Adjusted Pressure Absolute Pressure Temperature Relative Humidity Dew Point   
(mb) (inHg) (mb) (inHg) (C) (F) (%) (C) (F)
00:05 1023 30.21 852 25.16 10.6 51 50 0.6 33
00:10 1023 30.21 852 25.16 10.4 50.8 51 0.7 33.2
00:15 1023 30.21 852 25.16 10.3 50.5 52 0.8 33.5
00:20 1023 30.21 852 25.16 10.2 50.3 52 0.9 33.5
00:25 1023 30.21 852 25.16 10 50 53 0.9 33.6
00:30 1023 30.21 852 25.16 9.8 49.6 54 0.9 33.5
00:35 1023 30.21 852 25.16 9.7 49.4 53 0.6 33.1
00:40 1023 30.21 852 25.16 9.6 49.3 53 0.6 33.1
00:45 1023 30.21 852 25.16 9.4 48.9 54 0.7 33.2
00:50 1023 30.21 852 25.16 9.2 48.5 56 0.8 33.4
00:55 1023 30.21 852 25.16 9 48.2 55 0.6 33.1
01:00 1023 30.21 852 25.16 9.1 48.3 55 0.6 33.1
01:05 1023 30.21 852 25.16 8.9 48.1 56 0.6 33.1
01:10 1023 30.21 852 25.16 8.9 48.1 55 0.4 32.8
01:15 1023 30.21 852 25.16 9 48.2 55 0.5 32.9
01:20 1023 30.21 852 25.16 9 48.1 55 0.4 32.6
01:25 1023 30.21 852 25.16 9.3 48.7 51 -0.2 31.6
01:30 1023 30.21 852 25.16 9.4 49 53 0.2 32.4
01:35 1023 30.21 852 25.16 9 48.1 55 0.4 32.7
01:40 1023 30.21 852 25.16 8.6 47.5 56 0.4 32.8
01:45 1023 30.21 852 25.16 8.4 47.1 57 0.3 32.5
01:50 1023 30.21 852 25.16 8.4 47.2 56 0.1 32.2
01:55 1023 30.21 852 25.16 8.5 47.3 56 0.3 32.5
02:00 1023 30.21 852 25.16 8.4 47.1 58 0.6 33
02:05 1023 30.21 852 25.16 8.3 46.9 57 0.4 32.7
02:10 1023 30.21 852 25.16 8.5 47.2 57 0.3 32.6
02:15 1023 30.21 852 25.16 8.5 47.4 56 0.4 32.7
02:20 1023 30.21 852 25.16 8.5 47.3 56 0.4 32.7
02:25 1023 30.21 852 25.16 8.6 47.5 55 0.1 32.2
02:30 1023 30.21 852 25.16 8.6 47.5 56 0.4 32.7
02:35 1023 30.21 852 25.16 8.3 47 58 0.6 33.1
02:40 1023 30.21 852 25.16 8.1 46.5 59 0.5 32.8
02:45 1023 30.21 852 25.16 8 46.4 58 0.4 32.7
02:50 1023 30.21 852 25.16 8 46.4 58 0.3 32.6
02:55 1023 30.21 852 25.16 7.9 46.3 57 0.1 32.1
03:00 1023 30.21 852 25.16 7.9 46.2 58 0.2 32.4
03:05 1023 30.21 852 25.16 7.9 46.2 57 -0.1 31.9
03:10 1023 30.21 852 25.16 7.9 46.1 58 0.1 32.1
03:15 1023 30.21 852 25.16 7.8 46 57 -0.1 31.9
03:20 1023 30.21 852 25.16 7.8 46 58 0 32
03:25 1022 30.18 852 25.16 7.8 46.1 57 -0.2 31.7
03:30 1022 30.18 852 25.16 7.7 45.8 57 -0.2 31.7
03:35 1022 30.18 852 25.16 7.4 45.3 59 0 32.1
03:40 1022 30.18 851 25.13 7.4 45.4 58 -0.2 31.6
03:45 1022 30.18 851 25.13 8.2 46.8 56 -0 31.9
03:50 1022 30.18 851 25.13 8.4 47.2 56 0.1 32.1
03:55 1022 30.18 851 25.13 8.1 46.6 59 0.5 33
04:00 1022 30.18 851 25.13 7.4 45.3 60 0.2 32.4
04:05 1022 30.18 851 25.13 7.6 45.6 58 -0.1 31.8
04:10 1022 30.18 851 25.13 7.7 45.9 60 0.4 32.7
04:15 1022 30.18 851 25.13 7.1 44.7 64 0.7 33.3
04:20 1022 30.18 851 25.13 6.5 43.6 64 0.2 32.4
04:25 1022 30.18 851 25.13 6.4 43.5 63 0 32
04:30 1022 30.18 851 25.13 6.5 43.7 63 -0.1 31.8
04:35 1022 30.18 851 25.13 6.7 44 61 -0.3 31.4
04:40 1022 30.18 851 25.13 6.8 44.3 61 -0.2 31.7
04:45 1022 30.18 851 25.13 7 44.5 60 -0.4 31.4
04:50 1022 30.18 851 25.13 7 44.7 60 -0.1 31.9
04:55 1022 30.18 851 25.13 7.2 44.9 59 -0.3 31.5
05:00 1022 30.18 851 25.13 7.4 45.3 59 -0.1 31.9
05:05 1022 30.18 851 25.13 7.2 44.9 59 -0.2 31.7
05:10 1022 30.18 851 25.13 7.2 44.9 60 -0.1 31.8
05:15 1022 30.18 851 25.13 7.4 45.3 58 -0.3 31.5
05:20 1022 30.18 851 25.13 7.6 45.6 58 -0.1 31.8
05:25 1022 30.18 851 25.13 7.8 46 57 -0.1 31.8
05:30 1022 30.18 851 25.13 8 46.4 57 0 32
05:35 1022 30.18 851 25.13 7.1 44.9 60 -0.1 31.8
05:40 1022 30.18 851 25.13 6.6 43.9 64 0.3 32.5
05:45 1022 30.18 851 25.13 5.9 42.7 66 0.2 32.3
05:50 1022 30.18 851 25.13 5.7 42.2 66 -0.1 31.8
05:55 1022 30.18 851 25.13 5.9 42.6 62 -0.7 30.7
06:00 1022 30.18 851 25.13 6.2 43.1 63 -0.4 31.4
06:05 1022 30.18 852 25.16 6.1 43 63 -0.3 31.5
06:10 1022 30.18 851 25.13 6.5 43.7 62 -0.3 31.5
06:15 1022 30.18 851 25.13 7 44.7 61 0.1 32.2
06:20 1022 30.18 851 25.13 7.1 44.7 61 0.1 32.2
06:25 1022 30.18 851 25.13 7.2 45 61 0.2 32.4
06:30 1022 30.18 851 25.13 7.3 45.2 61 0.3 32.5
06:35 1022 30.18 852 25.16 7.2 45 61 0.2 32.3
06:40 1022 30.18 852 25.16 7.2 45 61 0.3 32.5
06:45 1022 30.18 852 25.16 7.3 45.2 61 0.3 32.5
06:50 1022 30.18 852 25.16 7.6 45.7 60 0.4 32.7
06:55 1022 30.18 852 25.16 7.9 46.1 60 0.6 33.1
07:00 1022 30.18 852 25.16 8.1 46.7 58 0.5 32.9
07:05 1022 30.18 852 25.16 8.6 47.5 57 0.6 33.1
07:10 1022 30.18 852 25.16 9 48.3 55 0.6 33.1
07:15 1022 30.18 852 25.16 9.4 48.8 54 0.5 32.8
07:20 1022 30.18 851 25.13 9.6 49.4 52 0.4 32.6
07:25 1022 30.18 851 25.13 10.2 50.4 50 0.4 32.8
07:30 1022 30.18 851 25.13 10.5 50.8 51 0.7 33.3
07:35 1022 30.18 851 25.13 10.6 51 49 0.3 32.5
07:40 1022 30.18 851 25.13 11.4 52.5 49 1 33.8
07:45 1022 30.18 851 25.13 11.5 52.7 48 0.9 33.7
07:50 1022 30.18 851 25.13 11.9 53.3 46 0.7 33.3
07:55 1022 30.18 851 25.13 12.5 54.5 44 0.7 33.3
08:00 1022 30.18 851 25.13 12.3 54.1 45 0.8 33.4
08:05 1022 30.18 851 25.13 12.4 54.3 45 0.8 33.4
08:10 1022 30.18 851 25.13 12.7 54.9 42 0.2 32.4
08:15 1022 30.18 851 25.13 13.4 56.2 42 1 33.7
08:20 1022 30.18 851 25.13 13.4 56 42 0.8 33.5
08:25 1022 30.18 851 25.13 13.9 57.1 39 0.4 32.7
08:30 1022 30.18 851 25.13 14.1 57.5 40 0.9 33.7
08:35 1022 30.18 851 25.13 13.7 56.7 40 0.6 33
08:40 1022 30.18 851 25.13 14.1 57.4 39 0.6 33
08:45 1022 30.18 851 25.13 13.4 56.2 42 0.8 33.4
08:50 1022 30.18 851 25.13 13.6 56.4 40 0.4 32.7
08:55 1022 30.18 851 25.13 13.7 56.6 40 0.3 32.5
09:00 1022 30.18 851 25.13 14.3 57.7 39 0.6 33
09:05 1022 30.18 851 25.13 14.6 58.3 38 0.4 32.7
09:10 1022 30.18 851 25.13 14.9 58.8 39 1.3 34.3
09:15 1022 30.18 851 25.13 14.7 58.5 40 1.2 34.1
09:20 1022 30.18 851 25.13 13.9 57.1 40 0.8 33.4
09:25 1022 30.18 851 25.13 14.8 58.7 38 0.8 33.5
09:30 1022 30.18 851 25.13 15 59.1 41 1.9 35.3
09:35 1022 30.18 851 25.13 15.4 59.7 37 0.7 33.3
09:40 1022 30.18 851 25.13 15.9 60.5 36 0.9 33.6
09:45 1022 30.18 851 25.13 16.3 61.3 35 0.8 33.5
09:50 1022 30.18 851 25.13 16.1 61 35 0.9 33.6
09:55 1021 30.15 851 25.13 16 60.7 36 1.1 34
10:00 1021 30.15 851 25.13 16.5 61.6 34 0.7 33.2
10:05 1021 30.15 851 25.13 17 62.6 34 1 33.9
10:10 1021 30.15 851 25.13 16.6 61.8 36 1.6 34.9
10:15 1021 30.15 851 25.13 15.5 60 37 1.1 34
10:20 1021 30.15 851 25.13 16 60.8 37 1.3 34.3
10:25 1021 30.15 850 25.1 16.6 61.9 34 1 33.7
10:30 1021 30.15 850 25.1 15.9 60.6 37 1.3 34.4
10:35 1021 30.15 850 25.1 16.3 61.3 34 0.3 32.6
10:40 1021 30.15 850 25.1 17.5 63.5 32 0.7 33.2
10:45 1021 30.15 850 25.1 18 64.3 30 0.5 32.9
10:50 1021 30.15 850 25.1 18.7 65.7 31 1.3 34.3
10:55 1021 30.15 850 25.1 18.5 65.2 32 1.4 34.6
11:00 1021 30.15 850 25.1 18.3 64.9 32 1.6 34.8
11:05 1021 30.15 850 25.1 18.1 64.6 31 1 33.9
11:10 1021 30.15 850 25.1 17.6 63.7 33 1.3 34.3
11:15 1021 30.15 850 25.1 18 64.3 32 1.1 34
11:20 1021 30.15 850 25.1 17.4 63.4 33 1.1 33.9
11:25 1020 30.12 850 25.1 18.4 65 31 1.1 34
11:30 1020 30.12 850 25.1 18.9 66.1 30 1.3 34.4
11:35 1020 30.12 850 25.1 18.7 65.6 31 1.6 34.8
11:40 1020 30.12 850 25.1 19.3 66.8 29 1.1 34
11:45 1020 30.12 849 25.07 19.1 66.3 31 1.7 35.1
11:50 1020 30.12 849 25.07 19.3 66.8 29 1.2 34.2
11:55 1020 30.12 849 25.07 18.9 65.9 29 0.6 33.1
12:00 1020 30.12 849 25.07 19 66.2 28 0.4 32.7
12:05 1020 30.12 849 25.07 19.5 67 28 0.5 32.8
12:10 1020 30.12 849 25.07 19.8 67.6 28 0.7 33.3
12:15 1020 30.12 849 25.07 19.6 67.3 28 1 33.8
12:20 1020 30.12 849 25.07 20.3 68.5 27 0.8 33.5
12:25 1020 30.12 849 25.07 19.2 66.6 29 0.7 33.2
12:30 1020 30.12 849 25.07 19 66.1 28 0.3 32.6
12:35 1020 30.12 849 25.07 20.3 68.6 25 -0.3 31.5
12:40 1020 30.12 849 25.07 19.5 67.1 28 0.6 33
12:45 1020 30.12 849 25.07 19.6 67.3 23 -2.2 28.1
12:50 1020 30.12 849 25.07 19.5 67 26 -0.6 30.9
12:55 1020 30.12 849 25.07 20.1 68.2 25 -0.4 31.3
13:00 1020 30.12 849 25.07 21.1 69.9 25 0.2 32.4
13:05 1020 30.12 849 25.07 21.4 70.5 23 -0.4 31.3
13:10 1020 30.12 849 25.07 21 69.8 25 0.6 33.1
13:15 1020 30.12 849 25.07 20.4 68.7 27 1.1 33.9
13:20 1019 30.09 849 25.07 21.1 69.9 22 -1.2 29.9
13:25 1019 30.09 849 25.07 21.5 70.7 23 -0.6 30.9
13:30 1019 30.09 849 25.07 21.3 70.4 24 0.3 32.6
13:35 1019 30.09 848 25.04 20.8 69.4 23 -1 30.1
13:40 1019 30.09 848 25.04 21.2 70.2 22 -1.2 29.9
13:45 1019 30.09 848 25.04 21.4 70.5 24 -0.1 31.8
13:50 1019 30.09 848 25.04 21.5 70.6 22 -0.7 30.7
13:55 1019 30.09 848 25.04 20.9 69.6 24 -0.5 31.1
14:00 1019 30.09 848 25.04 20.3 68.5 25 -0.3 31.5
14:05 1019 30.09 848 25.04 20.3 68.6 23 -1.1 30.1
14:10 1019 30.09 848 25.04 21.8 71.2 21 -1.5 29.2
14:15 1019 30.09 848 25.04 21.5 70.7 23 -0.5 31.1
14:20 1019 30.09 848 25.04 21.3 70.3 21 -1.8 28.8
14:25 1019 30.09 848 25.04 21.7 71.1 21 -1.5 29.3
14:30 1019 30.09 848 25.04 21.5 70.8 22 -0.8 30.5
14:35 1019 30.09 848 25.04 21.6 70.8 21 -1.7 28.9
14:40 1019 30.09 848 25.04 21.3 70.4 22 -1 30.2
14:45 1019 30.09 848 25.04 21.8 71.2 20 -1.7 28.9
14:50 1018 30.06 848 25.04 22.1 71.7 21 -1.3 29.7
14:55 1018 30.06 848 25.04 22.5 72.6 20 -1.2 29.8
15:00 1018 30.06 848 25.04 22.1 71.7 21 -1.4 29.5
15:05 1018 30.06 848 25.04 22.5 72.4 20 -1.3 29.7
15:10 1018 30.06 847 25.01 22.4 72.3 20 -1.8 28.8
15:15 1018 30.06 847 25.01 22 71.6 21 -1.2 29.9
15:20 1018 30.06 847 25.01 22.4 72.3 19 -1.9 28.6
15:25 1018 30.06 847 25.01 21.4 70.5 22 -0.9 30.4
15:30 1018 30.06 847 25.01 21.5 70.7 21 -1.4 29.5
15:35 1018 30.06 847 25.01 21.9 71.5 20 -1.9 28.5
15:40 1018 30.06 847 25.01 22.4 72.2 19 -2 28.5
15:45 1018 30.06 847 25.01 22.3 72.1 20 -1.7 28.9
15:50 1018 30.06 847 25.01 22.4 72.3 20 -1.6 29.1
15:55 1018 30.06 847 25.01 22.7 72.8 20 -1.3 29.7
16:00 1018 30.06 847 25.01 21.6 70.9 20 -2 28.4
16:05 1018 30.06 847 25.01 21.5 70.8 21 -1.3 29.7
16:10 1018 30.06 847 25.01 22.3 72.2 20 -1.5 29.3
16:15 1018 30.06 847 25.01 22.6 72.6 20 -1.1 30.1
16:20 1018 30.06 847 25.01 22.8 73 19 -2 28.5
16:25 1018 30.06 847 25.01 22.6 72.7 18 -2.3 27.8
16:30 1018 30.06 847 25.01 22.7 72.8 21 -0.4 31.2
16:35 1018 30.06 847 25.01 22.1 71.8 19 -2.2 28
16:40 1018 30.06 847 25.01 22.3 72.1 20 -1.2 29.8
16:45 1018 30.06 847 25.01 22.3 72.2 20 -1.6 29.1
16:50 1018 30.06 847 25.01 22.1 71.9 20 -1.8 28.8
16:55 1018 30.06 847 25.01 22.1 71.7 19 -2.2 28.1
17:00 1018 30.06 847 25.01 21.8 71.2 19 -2.4 27.6
17:05 1018 30.06 847 25.01 21.3 70.3 20 -2.7 27.1
17:10 1018 30.06 847 25.01 21.2 70.2 20 -2.6 27.4
17:15 1018 30.06 847 25.01 21.2 70.1 20 -2.5 27.5
17:20 1018 30.06 847 25.01 21 69.8 20 -2.7 27.2
17:25 1018 30.06 847 25.01 21 69.7 21 -2.2 28
17:30 1018 30.06 847 25.01 21.1 70 21 -2.2 28.1
17:35 1018 30.06 847 25.01 21.1 70 20 -2.4 27.7
17:40 1018 30.06 847 25.01 21 69.8 20 -2.6 27.3
17:45 1018 30.06 847 25.01 20.7 69.2 21 -2.4 27.8
17:50 1018 30.06 847 25.01 20.8 69.4 21 -2.1 28.2
17:55 1018 30.06 847 25.01 20.7 69.3 21 -2 28.5
18:00 1018 30.06 847 25.01 20.7 69.2 20 -2.7 27.2
18:05 1018 30.06 847 25.01 20.7 69.2 20 -2.7 27.1
18:10 1017 30.03 847 25.01 20.6 69.1 21 -2.3 27.8
18:15 1017 30.03 847 25.01 20.6 69 22 -1.7 28.9
18:20 1018 30.06 847 25.01 20.4 68.8 22 -1.9 28.6
18:25 1017 30.03 847 25.01 20.3 68.5 23 -1.4 29.5
18:30 1017 30.03 847 25.01 20.1 68.2 22 -2.2 28.1
18:35 1018 30.06 847 25.01 19.9 67.9 22 -2.1 28.2
18:40 1018 30.06 847 25.01 19.8 67.6 23 -2.1 28.3
18:45 1018 30.06 847 25.01 19.8 67.6 25 -0.9 30.4
18:50 1017 30.03 847 25.01 19.8 67.6 25 -0.8 30.5
18:55 1017 30.03 847 25.01 19.7 67.5 23 -1.7 29
19:00 1017 30.03 847 25.01 19.6 67.3 25 -0.7 30.8
19:05 1017 30.03 847 25.01 19.4 66.9 26 -0.5 31
19:10 1017 30.03 847 25.01 18.8 65.8 31 1.2 34.2
19:15 1017 30.03 847 25.01 18.1 64.6 32 1.5 34.7
19:20 1017 30.03 847 25.01 17.8 64.1 32 1.3 34.3
19:25 1018 30.06 847 25.01 17.7 63.8 34 1.6 34.8
19:30 1018 30.06 847 25.01 17.2 62.9 35 1.6 34.8
19:35 1018 30.06 847 25.01 16.7 62 34 0.7 33.2
19:40 1018 30.06 847 25.01 16.4 61.5 34 0.6 33
19:45 1018 30.06 847 25.01 16.1 61.1 37 1.5 34.7
19:50 1018 30.06 847 25.01 15.7 60.3 35 0.3 32.5
19:55 1018 30.06 847 25.01 15.5 59.9 37 0.9 33.6
20:00 1018 30.06 847 25.01 15.3 59.5 36 0.3 32.6
20:05 1018 30.06 847 25.01 14.8 58.7 38 0.6 33
20:10 1018 30.06 847 25.01 14.4 58 41 1.6 34.9
20:15 1018 30.06 847 25.01 13.9 57 42 1.3 34.3
20:20 1018 30.06 847 25.01 13.8 56.8 40 0.5 32.9
20:25 1018 30.06 847 25.01 13.8 56.9 39 0.3 32.5
20:30 1018 30.06 847 25.01 13.9 57 37 -0.5 31
20:35 1018 30.06 847 25.01 14 57.1 38 -0.1 31.9
20:40 1018 30.06 847 25.01 13.8 56.9 38 -0.2 31.6
20:45 1018 30.06 847 25.01 13.7 56.6 38 -0.3 31.5
20:50 1018 30.06 847 25.01 13.6 56.5 38 -0.5 31.1
20:55 1018 30.06 847 25.01 13.5 56.4 38 -0.6 30.9
21:00 1018 30.06 847 25.01 13.6 56.4 37 -0.7 30.7
21:05 1018 30.06 847 25.01 13.6 56.4 38 -0.4 31.3
21:10 1018 30.06 847 25.01 13.3 56 38 -0.7 30.7
21:15 1018 30.06 847 25.01 13.2 55.8 38 -0.8 30.6
21:20 1018 30.06 847 25.01 13.1 55.6 38 -0.7 30.8
21:25 1018 30.06 847 25.01 13 55.4 39 -0.6 30.9
21:30 1018 30.06 847 25.01 12.9 55.2 39 -0.7 30.7
21:35 1018 30.06 847 25.01 12.9 55.1 39 -0.7 30.7
21:40 1018 30.06 847 25.01 12.9 55.3 39 -0.7 30.7
21:45 1018 30.06 847 25.01 12.8 55 40 -0.4 31.2
21:50 1018 30.06 847 25.01 12.5 54.5 40 -0.6 30.9
21:55 1018 30.06 847 25.01 12.6 54.7 41 -0.3 31.4
22:00 1018 30.06 847 25.01 12.8 55 41 0.1 32.1
22:05 1018 30.06 847 25.01 13 55.4 42 0.5 32.8
22:10 1018 30.06 847 25.01 13.3 55.9 42 0.8 33.4
22:15 1018 30.06 847 25.01 13.3 55.9 42 0.6 33
22:20 1018 30.06 847 25.01 12.7 54.8 44 0.7 33.3
22:25 1018 30.06 847 25.01 12.8 55 42 0.4 32.6
22:30 1018 30.06 847 25.01 12.5 54.5 43 0.4 32.8
22:35 1018 30.06 847 25.01 12.3 54.2 44 0.6 33
22:40 1018 30.06 847 25.01 12.7 54.8 44 0.7 33.2
22:45 1018 30.06 847 25.01 12.9 55.3 44 1 33.8
22:50 1018 30.06 847 25.01 13.1 55.6 44 1.1 34
22:55 1018 30.06 847 25.01 13.2 55.8 44 1.4 34.5
23:00 1018 30.06 847 25.01 12.9 55.2 46 1.5 34.8
23:05 1018 30.06 847 25.01 12.6 54.7 46 1.3 34.3
23:10 1018 30.06 847 25.01 12.6 54.7 44 0.8 33.4
23:15 1018 30.06 847 25.01 12.6 54.7 45 0.9 33.6
23:20 1018 30.06 847 25.01 12.4 54.3 45 0.9 33.5
23:25 1018 30.06 847 25.01 12.3 54.2 46 1 33.8
23:30 1018 30.06 847 25.01 12.2 53.9 45 0.8 33.4
23:35 1018 30.06 847 25.01 12.2 54 45 0.7 33.3
23:40 1018 30.06 847 25.01 12.2 54 46 0.9 33.7
23:45 1018 30.06 847 25.01 12.2 54 46 0.9 33.7
23:50 1018 30.06 847 25.01 12.1 53.8 46 0.8 33.5
23:55 1018 30.06 847 25.01 12 53.6 46 0.8 33.5
24:00 1018 30.06 847 25.01 11.9 53.3 46 0.6 33.1